createdAt,value
2018-12-29T00:00:45.137Z,56.40
2018-12-29T00:02:46.862Z,62.20
2018-12-29T00:04:48.670Z,52.87
2018-12-29T00:06:50.406Z,51.73
2018-12-29T00:08:52.126Z,58.90
2018-12-29T00:10:53.850Z,56.10
2018-12-29T00:12:55.586Z,60.45
2018-12-29T00:14:57.297Z,58.90
2018-12-29T00:16:59.018Z,58.52
2018-12-29T00:19:00.937Z,64.37
2018-12-29T00:21:02.909Z,78.83
2018-12-29T00:23:04.647Z,61.73
2018-12-29T00:25:06.394Z,60.95
2018-12-29T00:27:08.110Z,56.45
2018-12-29T00:29:09.847Z,56.08
2018-12-29T00:31:11.594Z,65.32
2018-12-29T00:33:13.327Z,60.23
2018-12-29T00:35:15.062Z,56.53
2018-12-29T00:37:17.043Z,54.98
2018-12-29T00:39:18.777Z,52.45
2018-12-29T00:41:20.603Z,50.75
2018-12-29T00:43:22.381Z,58.20
2018-12-29T00:45:24.275Z,68.10
2018-12-29T00:47:26.015Z,58.23
2018-12-29T00:49:27.827Z,56.58
2018-12-29T00:51:29.551Z,58.52
2018-12-29T00:53:31.525Z,59.93
2018-12-29T00:55:33.262Z,62.58
2018-12-29T00:57:35.094Z,51.13
2018-12-29T00:59:36.833Z,55.83
2018-12-29T01:01:38.953Z,49.38
2018-12-29T01:03:40.693Z,55.05
2018-12-29T01:05:42.400Z,57.40
2018-12-29T01:07:44.137Z,55.78
2018-12-29T01:09:46.058Z,56.35
2018-12-29T01:11:48.080Z,59.85
2018-12-29T01:13:49.814Z,57.60
2018-12-29T01:15:51.561Z,57.80
2018-12-29T01:17:53.290Z,52.17
2018-12-29T01:19:55.234Z,49.63
2018-12-29T01:21:56.969Z,52.38
2018-12-29T01:23:58.693Z,50.75
2018-12-29T01:26:00.425Z,50.90
2018-12-29T01:28:02.155Z,52.10
2018-12-29T01:30:05.337Z,56.02
2018-12-29T01:32:07.033Z,51.53
2018-12-29T01:34:08.745Z,50.63
2018-12-29T01:36:10.479Z,49.00
2018-12-29T01:38:12.209Z,46.33
2018-12-29T01:40:13.931Z,52.90
2018-12-29T01:42:15.659Z,52.95
2018-12-29T01:44:17.378Z,43.58
2018-12-29T01:46:19.110Z,49.48
2018-12-29T01:48:20.861Z,45.15
2018-12-29T01:50:22.585Z,47.78
2018-12-29T01:52:24.285Z,43.45
2018-12-29T01:54:26.261Z,47.15
2018-12-29T01:56:27.981Z,44.53
2018-12-29T01:58:29.685Z,42.75
2018-12-29T02:00:31.722Z,50.23
2018-12-29T02:02:33.439Z,42.70
2018-12-29T02:04:35.161Z,43.30
2018-12-29T02:06:36.906Z,52.50
2018-12-29T02:08:38.865Z,48.42
2018-12-29T02:10:40.589Z,50.88
2018-12-29T02:12:42.327Z,47.20
2018-12-29T02:14:44.026Z,48.30
2018-12-29T02:16:45.852Z,47.05
2018-12-29T02:18:49.286Z,40.95
2018-12-29T02:20:51.253Z,49.30
2018-12-29T02:22:52.976Z,54.00
2018-12-29T02:24:54.693Z,52.13
2018-12-29T02:26:56.548Z,49.53
2018-12-29T02:28:58.265Z,53.58
2018-12-29T02:30:59.975Z,52.75
2018-12-29T02:33:01.726Z,55.05
2018-12-29T02:35:03.600Z,49.20
2018-12-29T02:37:05.319Z,49.73
2018-12-29T02:39:07.179Z,57.48
2018-12-29T02:41:08.921Z,52.23
2018-12-29T02:43:10.645Z,53.70
2018-12-29T02:45:12.406Z,53.20
2018-12-29T02:47:14.126Z,54.30
2018-12-29T02:49:15.849Z,54.10
2018-12-29T02:51:17.675Z,56.33
2018-12-29T02:53:19.387Z,50.23
2018-12-29T02:55:21.090Z,52.20
2018-12-29T02:57:22.841Z,55.60
2018-12-29T02:59:24.553Z,54.25
2018-12-29T03:01:26.289Z,55.73
2018-12-29T03:03:28.226Z,56.68
2018-12-29T03:05:29.938Z,53.02
2018-12-29T03:07:31.659Z,59.70
2018-12-29T03:09:33.407Z,61.20
2018-12-29T03:11:35.117Z,52.40
2018-12-29T03:13:36.866Z,51.55
2018-12-29T03:15:41.700Z,49.95
2018-12-29T03:17:42.390Z,58.10
2018-12-29T03:19:44.103Z,57.05
2018-12-29T03:21:46.166Z,52.60
2018-12-29T03:23:50.581Z,53.08
2018-12-29T03:25:52.320Z,51.95
2018-12-29T03:27:54.297Z,46.90
2018-12-29T03:29:56.014Z,60.80
2018-12-29T03:31:57.742Z,56.00
2018-12-29T03:33:59.480Z,50.90
2018-12-29T03:36:01.192Z,51.28
2018-12-29T03:38:02.906Z,57.33
2018-12-29T03:40:05.490Z,48.45
2018-12-29T03:42:07.213Z,48.20
2018-12-29T03:44:08.947Z,54.50
2018-12-29T03:46:11.988Z,46.08
2018-12-29T03:48:13.709Z,51.58
2018-12-29T03:50:15.565Z,59.63
2018-12-29T03:52:17.443Z,52.35
2018-12-29T03:54:19.301Z,49.42
2018-12-29T03:56:21.166Z,47.60
2018-12-29T03:58:23.046Z,49.67
2018-12-29T04:00:24.902Z,50.25
2018-12-29T04:02:26.771Z,47.27
2018-12-29T04:04:28.641Z,49.00
2018-12-29T04:06:30.512Z,43.58
2018-12-29T04:08:32.365Z,50.55
2018-12-29T04:10:34.423Z,43.25
2018-12-29T04:12:37.297Z,46.15
2018-12-29T04:14:39.234Z,50.12
2018-12-29T04:16:41.218Z,51.98
2018-12-29T04:18:43.069Z,49.10
2018-12-29T04:20:45.027Z,41.98
2018-12-29T04:22:46.889Z,46.85
2018-12-29T04:24:48.760Z,46.80
2018-12-29T04:26:50.609Z,49.13
2018-12-29T04:28:52.560Z,47.38
2018-12-29T04:30:54.417Z,44.77
2018-12-29T04:32:56.274Z,55.28
2018-12-29T04:34:58.149Z,45.50
2018-12-29T04:36:59.993Z,55.10
2018-12-29T04:39:01.952Z,49.77
2018-12-29T04:41:04.077Z,51.45
2018-12-29T04:43:05.933Z,44.23
2018-12-29T04:45:07.791Z,54.85
2018-12-29T04:47:09.882Z,48.73
2018-12-29T04:49:11.735Z,46.68
2018-12-29T04:51:13.597Z,45.23
2018-12-29T04:53:15.559Z,51.18
2018-12-29T04:55:17.428Z,56.25
2018-12-29T04:57:19.280Z,47.38
2018-12-29T04:59:21.149Z,48.65
2018-12-29T05:01:22.998Z,54.33
2018-12-29T05:03:24.865Z,52.10
2018-12-29T05:05:26.601Z,44.53
2018-12-29T05:07:30.837Z,49.80
2018-12-29T05:09:32.560Z,55.43
2018-12-29T05:11:34.308Z,51.02
2018-12-29T05:13:36.029Z,49.83
2018-12-29T05:15:37.756Z,51.65
2018-12-29T05:17:39.503Z,48.33
2018-12-29T05:19:41.219Z,53.80
2018-12-29T05:21:42.928Z,43.92
2018-12-29T05:23:45.009Z,48.85
2018-12-29T05:25:46.715Z,45.17
2018-12-29T05:27:48.498Z,45.33
2018-12-29T05:29:50.475Z,43.68
2018-12-29T05:31:52.185Z,42.85
2018-12-29T05:33:53.939Z,41.42
2018-12-29T05:35:56.242Z,46.30
2018-12-29T05:37:57.945Z,40.67
2018-12-29T05:39:59.686Z,47.67
2018-12-29T05:42:01.435Z,40.57
2018-12-29T05:44:03.239Z,38.60
2018-12-29T05:46:04.972Z,39.00
2018-12-29T05:48:06.708Z,33.37
2018-12-29T05:50:08.439Z,38.53
2018-12-29T05:52:10.158Z,35.13
2018-12-29T05:54:11.911Z,36.35
2018-12-29T05:56:13.645Z,36.30
2018-12-29T05:58:15.470Z,33.43
2018-12-29T06:00:17.657Z,34.00
2018-12-29T06:02:19.369Z,33.30
2018-12-29T06:04:21.073Z,32.77
2018-12-29T06:06:22.805Z,32.90
2018-12-29T06:08:24.549Z,32.90
2018-12-29T06:10:26.270Z,33.63
2018-12-29T06:12:28.381Z,34.40
2018-12-29T06:14:30.101Z,28.53
2018-12-29T06:16:31.817Z,32.65
2018-12-29T06:18:33.954Z,33.10
2018-12-29T06:20:35.660Z,28.60
2018-12-29T06:22:37.377Z,33.57
2018-12-29T06:24:39.322Z,33.10
2018-12-29T06:26:41.037Z,28.33
2018-12-29T06:28:42.769Z,34.78
2018-12-29T06:30:44.593Z,27.80
2018-12-29T06:32:46.309Z,27.75
2018-12-29T06:34:48.143Z,28.27
2018-12-29T06:36:49.979Z,28.87
2018-12-29T06:39:11.386Z,29.50
2018-12-29T06:41:32.741Z,26.17
2018-12-29T06:43:54.118Z,32.50
2018-12-29T06:46:15.481Z,32.93
2018-12-29T06:48:36.829Z,33.80
2018-12-29T06:50:58.222Z,27.57
2018-12-29T06:53:19.569Z,34.67
2018-12-29T06:55:40.933Z,36.90
2018-12-29T06:58:02.642Z,38.07
2018-12-29T07:00:23.993Z,37.80
2018-12-29T07:02:45.344Z,43.40
2018-12-29T07:05:06.706Z,42.67
2018-12-29T07:07:28.201Z,42.13
2018-12-29T07:09:49.565Z,39.38
2018-12-29T07:12:11.105Z,49.23
2018-12-29T07:14:32.449Z,53.30
2018-12-29T07:16:53.835Z,42.20
2018-12-29T07:19:15.277Z,43.30
2018-12-29T07:21:36.651Z,48.13
2018-12-29T07:23:58.025Z,57.17
2018-12-29T07:26:19.509Z,51.25
2018-12-29T07:28:40.866Z,60.73
2018-12-29T07:31:02.225Z,48.53
2018-12-29T07:33:23.697Z,58.60
2018-12-29T07:35:45.053Z,53.73
2018-12-29T07:38:06.414Z,62.70
2018-12-29T07:40:27.829Z,52.07
2018-12-29T07:42:49.185Z,62.05
2018-12-29T07:45:10.549Z,63.67
2018-12-29T07:47:32.085Z,60.57
2018-12-29T07:49:53.441Z,63.83
2018-12-29T07:52:14.795Z,58.40
2018-12-29T07:54:36.271Z,73.35
2018-12-29T07:56:57.666Z,63.73
2018-12-29T07:59:19.028Z,61.60
2018-12-29T08:01:23.233Z,70.17
2018-12-29T08:03:44.625Z,66.00
2018-12-29T08:06:06.005Z,64.95
2018-12-29T08:10:54.709Z,67.50
2018-12-29T08:13:16.082Z,59.53
2018-12-29T08:15:37.601Z,58.83
2018-12-29T08:17:51.827Z,58.40
2018-12-29T08:20:04.376Z,60.63
2018-12-29T08:22:18.859Z,66.73
2018-12-29T08:24:31.130Z,53.03
2018-12-29T08:26:52.495Z,50.17
2018-12-29T08:29:13.876Z,47.30
2018-12-29T08:31:35.290Z,50.47
2018-12-29T08:33:56.742Z,48.27
2018-12-29T08:36:18.122Z,42.30
2018-12-29T08:38:39.586Z,43.63
2018-12-29T08:41:00.937Z,52.80
2018-12-29T08:43:22.565Z,46.77
2018-12-29T08:45:43.939Z,37.03
2018-12-29T08:48:05.308Z,44.50
2018-12-29T08:50:26.662Z,38.20
2018-12-29T08:52:48.027Z,35.97
2018-12-29T08:55:09.410Z,37.73
2018-12-29T08:57:30.866Z,34.67
2018-12-29T08:59:32.571Z,35.75
2018-12-29T09:01:54.185Z,27.67
2018-12-29T09:04:15.534Z,39.83
2018-12-29T09:06:36.887Z,26.57
2018-12-29T09:08:58.259Z,20.83
2018-12-29T09:11:19.621Z,22.90
2018-12-29T09:13:40.978Z,29.23
2018-12-29T09:16:02.347Z,23.83
2018-12-29T09:18:23.813Z,22.77
2018-12-29T09:20:46.664Z,23.30
2018-12-29T09:23:01.289Z,31.27
2018-12-29T09:25:13.622Z,32.00
2018-12-29T09:27:15.333Z,30.90
2018-12-29T09:29:36.702Z,27.13
2018-12-29T09:31:38.445Z,26.10
2018-12-29T09:33:59.803Z,30.20
2018-12-29T09:36:21.407Z,35.03
2018-12-29T09:38:35.501Z,41.60
2018-12-29T09:40:56.857Z,37.27
2018-12-29T09:43:18.333Z,35.97
2018-12-29T09:45:39.991Z,43.80
2018-12-29T09:48:01.345Z,32.87
2018-12-29T09:50:22.697Z,35.03
2018-12-29T09:52:24.435Z,36.73
2018-12-29T09:54:45.795Z,33.37
2018-12-29T09:57:07.162Z,37.23
2018-12-29T09:59:28.562Z,33.73
2018-12-29T10:01:50.158Z,39.30
2018-12-29T10:04:11.517Z,50.40
2018-12-29T10:06:32.983Z,42.83
2018-12-29T10:08:54.451Z,32.60
2018-12-29T10:11:16.441Z,40.97
2018-12-29T10:16:07.858Z,37.03
2018-12-29T10:18:29.379Z,34.50
2018-12-29T10:20:50.873Z,46.80
2018-12-29T10:23:12.373Z,40.07
2018-12-29T10:25:33.870Z,40.80
2018-12-29T10:27:55.393Z,37.23
2018-12-29T10:30:16.870Z,34.17
2018-12-29T10:32:38.354Z,46.47
2018-12-29T10:34:59.877Z,37.60
2018-12-29T10:37:21.384Z,41.53
2018-12-29T11:18:19.102Z,38.05
2018-12-29T11:20:40.609Z,35.90
2018-12-29T11:48:37.772Z,32.20
2018-12-29T11:50:59.272Z,33.67
2018-12-29T11:53:21.009Z,35.73
2018-12-29T11:55:42.498Z,30.30
2018-12-29T11:58:03.993Z,37.37
2018-12-29T12:00:25.728Z,34.60
2018-12-29T12:02:47.256Z,40.80
2018-12-29T12:05:08.783Z,31.60
2018-12-29T12:07:30.526Z,23.77
2018-12-29T12:09:52.095Z,36.33
2018-12-29T12:12:13.617Z,33.37
2018-12-29T12:14:35.245Z,35.77
2018-12-29T12:16:56.837Z,35.20
2018-12-29T12:19:18.329Z,33.93
2018-12-29T12:21:39.941Z,35.43
2018-12-29T12:24:01.511Z,35.73
2018-12-29T14:52:42.730Z,65.10
2018-12-29T16:14:46.133Z,42.53
2018-12-29T16:16:58.511Z,45.58
2018-12-29T16:19:20.006Z,45.80
2018-12-29T16:21:41.476Z,36.80
2018-12-29T16:24:04.766Z,42.60
2018-12-29T16:26:26.235Z,48.85
2018-12-29T16:28:40.698Z,43.35
2018-12-29T16:30:55.542Z,48.87
2018-12-29T16:33:07.720Z,48.28
2018-12-29T16:35:29.333Z,61.70
2018-12-29T16:37:52.729Z,38.05
2018-12-29T16:40:14.226Z,42.70
2018-12-29T16:42:35.837Z,43.98
2018-12-29T16:44:57.326Z,43.78
2018-12-29T16:47:18.838Z,41.30
2018-12-29T16:49:40.603Z,41.65
2018-12-29T16:52:02.383Z,40.38
2018-12-29T16:54:23.970Z,50.48
2018-12-29T16:56:45.657Z,54.27
2018-12-29T16:59:07.137Z,48.20
2018-12-29T17:01:30.183Z,46.95
2018-12-29T17:03:52.060Z,43.70
2018-12-29T17:06:13.554Z,53.50
2018-12-29T17:08:35.368Z,39.10
2018-12-29T17:10:57.002Z,50.23
2018-12-29T17:13:18.513Z,31.90
2018-12-29T17:15:40.101Z,41.92
2018-12-29T17:18:03.536Z,49.48
2018-12-29T17:20:25.025Z,37.65
2018-12-29T17:22:46.547Z,38.78
2018-12-29T17:25:08.138Z,45.78
2018-12-29T17:27:29.749Z,33.05
2018-12-29T20:49:39.511Z,8.20
2018-12-29T20:51:41.372Z,8.40
2018-12-29T20:54:02.750Z,6.87
2018-12-29T20:56:24.373Z,8.00
2018-12-29T20:58:45.750Z,5.87
2018-12-29T21:01:07.205Z,4.90
2018-12-29T21:03:28.903Z,5.35
2018-12-29T21:05:50.350Z,3.60
2018-12-29T21:08:11.705Z,6.17
2018-12-29T21:13:00.733Z,4.43
2018-12-29T21:15:22.197Z,4.23
2018-12-29T21:17:43.578Z,5.67
2018-12-29T21:20:05.025Z,5.73
2018-12-29T21:22:26.393Z,5.13
2018-12-29T21:24:47.987Z,6.13
2018-12-29T21:27:09.438Z,5.73
2018-12-29T21:29:30.810Z,3.33
2018-12-29T21:31:52.276Z,4.20
2018-12-29T21:34:04.364Z,4.23
2018-12-29T21:36:06.237Z,5.10
2018-12-29T21:38:27.593Z,6.43
2018-12-29T21:40:49.055Z,4.80
2018-12-29T21:45:38.313Z,4.10
2018-12-29T21:47:59.665Z,5.10
2018-12-29T21:50:25.288Z,4.70
2018-12-29T21:52:44.523Z,6.63
2018-12-29T21:55:07.817Z,5.63
2018-12-29T21:57:29.193Z,6.10
2018-12-29T21:59:41.251Z,8.00
2018-12-29T22:02:02.697Z,6.07
2018-12-29T22:04:24.335Z,6.50
2018-12-29T22:06:45.695Z,6.30
2018-12-29T22:09:07.077Z,11.80
2018-12-29T22:11:28.545Z,9.10
2018-12-29T22:13:49.893Z,11.63
2018-12-29T22:16:11.347Z,13.20
2018-12-29T22:18:34.637Z,11.90
2018-12-29T22:20:56.209Z,8.80
2018-12-29T22:23:37.210Z,6.40
2018-12-29T22:25:58.629Z,11.13
2018-12-29T22:28:19.988Z,10.67
2018-12-29T22:30:41.357Z,7.17
2018-12-29T22:33:02.718Z,6.10
2018-12-29T22:35:24.309Z,9.87
2018-12-29T22:37:45.685Z,10.00
2018-12-29T22:40:07.037Z,8.90
2018-12-29T22:42:28.666Z,14.43
2018-12-29T22:44:50.021Z,7.23
2018-12-29T22:47:11.499Z,15.27
2018-12-29T22:49:34.841Z,18.60
2018-12-29T22:51:56.665Z,19.43
2018-12-29T22:54:18.027Z,14.37
2018-12-29T22:56:39.542Z,15.63
2018-12-29T22:58:41.283Z,14.40
2018-12-29T23:00:46.141Z,17.97
2018-12-29T23:02:47.897Z,18.40
2018-12-29T23:04:49.897Z,19.33
2018-12-29T23:06:51.919Z,23.43
2018-12-29T23:08:53.842Z,15.87
2018-12-29T23:10:55.721Z,44.27
2018-12-29T23:12:57.548Z,122.70
2018-12-29T23:14:59.581Z,43.60
2018-12-29T23:17:01.618Z,32.30
2018-12-29T23:19:03.665Z,22.83
2018-12-29T23:21:05.590Z,24.73
2018-12-29T23:23:07.304Z,27.27
2018-12-29T23:25:09.011Z,26.47
2018-12-29T23:27:11.481Z,20.30
2018-12-29T23:29:13.232Z,20.70
2018-12-29T23:31:14.945Z,27.30
2018-12-29T23:33:16.791Z,26.27
2018-12-29T23:35:18.709Z,22.17
2018-12-29T23:37:20.462Z,30.27
2018-12-29T23:39:22.496Z,20.77
2018-12-29T23:41:24.609Z,13.93
2018-12-29T23:43:26.721Z,27.00
2018-12-29T23:45:28.473Z,18.60
2018-12-29T23:47:30.287Z,20.30
2018-12-29T23:49:32.441Z,25.03
2018-12-29T23:51:34.545Z,16.33
2018-12-29T23:53:36.297Z,21.00
2018-12-29T23:55:38.424Z,22.63
2018-12-29T23:57:40.147Z,17.50
2018-12-29T23:59:41.999Z,28.27
